sensor_id;sensor_type;location;lat;lon;timestamp;P1;durP1;ratioP1;P2;durP2;ratioP2
27225;SDS011;14732;51.074;3.788;2024-03-17T00:02:17;6.47;;;4.18;;
27225;SDS011;14732;51.074;3.788;2024-03-17T00:04:43;8.90;;;4.63;;
27225;SDS011;14732;51.074;3.788;2024-03-17T00:07:12;7.60;;;4.15;;
27225;SDS011;14732;51.074;3.788;2024-03-17T00:09:38;7.03;;;4.40;;
27225;SDS011;14732;51.074;3.788;2024-03-17T00:12:04;8.18;;;4.50;;
27225;SDS011;14732;51.074;3.788;2024-03-17T00:14:30;6.07;;;3.72;;
27225;SDS011;14732;51.074;3.788;2024-03-17T00:16:56;8.25;;;4.20;;
27225;SDS011;14732;51.074;3.788;2024-03-17T00:19:23;10.15;;;4.22;;
27225;SDS011;14732;51.074;3.788;2024-03-17T00:21:49;8.25;;;4.10;;
27225;SDS011;14732;51.074;3.788;2024-03-17T00:24:18;8.82;;;4.28;;
27225;SDS011;14732;51.074;3.788;2024-03-17T00:26:45;7.65;;;4.25;;
27225;SDS011;14732;51.074;3.788;2024-03-17T00:29:11;4.90;;;4.07;;
27225;SDS011;14732;51.074;3.788;2024-03-17T00:31:36;7.18;;;4.85;;
27225;SDS011;14732;51.074;3.788;2024-03-17T00:34:02;8.50;;;4.70;;
27225;SDS011;14732;51.074;3.788;2024-03-17T00:36:29;7.93;;;4.57;;
27225;SDS011;14732;51.074;3.788;2024-03-17T00:38:55;7.13;;;4.30;;
27225;SDS011;14732;51.074;3.788;2024-03-17T00:41:21;8.90;;;4.43;;
27225;SDS011;14732;51.074;3.788;2024-03-17T00:43:48;9.13;;;4.60;;
27225;SDS011;14732;51.074;3.788;2024-03-17T00:46:14;9.80;;;4.45;;
27225;SDS011;14732;51.074;3.788;2024-03-17T00:48:40;7.32;;;4.28;;
27225;SDS011;14732;51.074;3.788;2024-03-17T00:51:05;7.32;;;4.18;;
27225;SDS011;14732;51.074;3.788;2024-03-17T00:53:31;7.97;;;4.32;;
27225;SDS011;14732;51.074;3.788;2024-03-17T00:55:56;7.03;;;4.95;;
27225;SDS011;14732;51.074;3.788;2024-03-17T00:58:28;6.70;;;4.50;;
27225;SDS011;14732;51.074;3.788;2024-03-17T01:00:53;6.85;;;4.53;;
27225;SDS011;14732;51.074;3.788;2024-03-17T01:03:19;11.52;;;5.07;;
27225;SDS011;14732;51.074;3.788;2024-03-17T01:05:45;8.30;;;4.43;;
27225;SDS011;14732;51.074;3.788;2024-03-17T01:08:13;13.10;;;5.07;;
27225;SDS011;14732;51.074;3.788;2024-03-17T01:10:42;9.77;;;5.03;;
27225;SDS011;14732;51.074;3.788;2024-03-17T01:13:09;5.93;;;4.28;;
27225;SDS011;14732;51.074;3.788;2024-03-17T01:15:35;8.73;;;4.43;;
27225;SDS011;14732;51.074;3.788;2024-03-17T01:18:04;8.13;;;4.88;;
27225;SDS011;14732;51.074;3.788;2024-03-17T01:20:37;8.10;;;4.80;;
27225;SDS011;14732;51.074;3.788;2024-03-17T01:23:03;7.15;;;4.43;;
27225;SDS011;14732;51.074;3.788;2024-03-17T01:25:29;6.82;;;4.47;;
27225;SDS011;14732;51.074;3.788;2024-03-17T01:27:56;6.20;;;4.40;;
27225;SDS011;14732;51.074;3.788;2024-03-17T01:30:22;8.18;;;5.18;;
27225;SDS011;14732;51.074;3.788;2024-03-17T01:32:48;9.80;;;4.60;;
27225;SDS011;14732;51.074;3.788;2024-03-17T01:35:15;10.85;;;5.30;;
27225;SDS011;14732;51.074;3.788;2024-03-17T01:37:41;8.10;;;5.05;;
27225;SDS011;14732;51.074;3.788;2024-03-17T01:40:07;12.82;;;5.00;;
27225;SDS011;14732;51.074;3.788;2024-03-17T01:42:35;13.07;;;5.50;;
27225;SDS011;14732;51.074;3.788;2024-03-17T01:45:05;7.70;;;5.30;;
27225;SDS011;14732;51.074;3.788;2024-03-17T01:47:43;10.27;;;5.10;;
27225;SDS011;14732;51.074;3.788;2024-03-17T01:50:09;8.77;;;4.88;;
27225;SDS011;14732;51.074;3.788;2024-03-17T01:52:36;6.82;;;4.47;;
27225;SDS011;14732;51.074;3.788;2024-03-17T01:55:03;8.73;;;5.30;;
27225;SDS011;14732;51.074;3.788;2024-03-17T01:57:29;9.90;;;5.28;;
27225;SDS011;14732;51.074;3.788;2024-03-17T01:59:55;12.25;;;5.22;;
27225;SDS011;14732;51.074;3.788;2024-03-17T02:02:22;7.68;;;5.03;;
27225;SDS011;14732;51.074;3.788;2024-03-17T02:04:47;7.78;;;5.47;;
27225;SDS011;14732;51.074;3.788;2024-03-17T02:07:13;8.52;;;5.40;;
27225;SDS011;14732;51.074;3.788;2024-03-17T02:09:40;7.55;;;4.93;;
27225;SDS011;14732;51.074;3.788;2024-03-17T02:12:08;8.95;;;5.10;;
27225;SDS011;14732;51.074;3.788;2024-03-17T02:14:34;11.25;;;4.95;;
27225;SDS011;14732;51.074;3.788;2024-03-17T02:17:00;11.77;;;5.53;;
27225;SDS011;14732;51.074;3.788;2024-03-17T02:19:25;6.50;;;4.70;;
27225;SDS011;14732;51.074;3.788;2024-03-17T02:21:51;9.02;;;5.22;;
27225;SDS011;14732;51.074;3.788;2024-03-17T02:24:17;8.07;;;4.90;;
27225;SDS011;14732;51.074;3.788;2024-03-17T02:26:42;8.30;;;5.38;;
27225;SDS011;14732;51.074;3.788;2024-03-17T02:29:08;9.32;;;5.38;;
27225;SDS011;14732;51.074;3.788;2024-03-17T02:31:34;7.15;;;4.97;;
27225;SDS011;14732;51.074;3.788;2024-03-17T02:34:00;9.30;;;5.38;;
27225;SDS011;14732;51.074;3.788;2024-03-17T02:36:25;8.85;;;5.70;;
27225;SDS011;14732;51.074;3.788;2024-03-17T02:38:51;8.52;;;5.00;;
27225;SDS011;14732;51.074;3.788;2024-03-17T02:41:35;9.00;;;5.40;;
27225;SDS011;14732;51.074;3.788;2024-03-17T02:44:01;10.45;;;5.93;;
27225;SDS011;14732;51.074;3.788;2024-03-17T02:46:26;10.10;;;5.65;;
27225;SDS011;14732;51.074;3.788;2024-03-17T02:48:52;8.50;;;5.57;;
27225;SDS011;14732;51.074;3.788;2024-03-17T02:51:19;10.98;;;5.13;;
27225;SDS011;14732;51.074;3.788;2024-03-17T02:53:46;7.53;;;5.20;;
27225;SDS011;14732;51.074;3.788;2024-03-17T02:56:14;10.60;;;5.32;;
27225;SDS011;14732;51.074;3.788;2024-03-17T02:58:41;7.93;;;5.07;;
27225;SDS011;14732;51.074;3.788;2024-03-17T03:01:08;9.52;;;5.18;;
27225;SDS011;14732;51.074;3.788;2024-03-17T03:03:36;10.32;;;5.05;;
27225;SDS011;14732;51.074;3.788;2024-03-17T03:06:02;9.13;;;5.57;;
27225;SDS011;14732;51.074;3.788;2024-03-17T03:08:33;11.43;;;5.45;;
27225;SDS011;14732;51.074;3.788;2024-03-17T03:11:09;13.70;;;5.28;;
27225;SDS011;14732;51.074;3.788;2024-03-17T03:13:40;11.77;;;5.60;;
27225;SDS011;14732;51.074;3.788;2024-03-17T03:16:07;7.07;;;5.10;;
27225;SDS011;14732;51.074;3.788;2024-03-17T03:18:33;9.05;;;4.95;;
27225;SDS011;14732;51.074;3.788;2024-03-17T03:21:03;7.90;;;4.80;;
27225;SDS011;14732;51.074;3.788;2024-03-17T03:23:29;6.88;;;5.03;;
27225;SDS011;14732;51.074;3.788;2024-03-17T03:25:56;8.02;;;5.28;;
27225;SDS011;14732;51.074;3.788;2024-03-17T03:28:23;10.57;;;5.07;;
27225;SDS011;14732;51.074;3.788;2024-03-17T03:30:50;7.28;;;5.10;;
27225;SDS011;14732;51.074;3.788;2024-03-17T03:33:16;9.50;;;4.95;;
27225;SDS011;14732;51.074;3.788;2024-03-17T03:35:43;10.98;;;5.18;;
27225;SDS011;14732;51.074;3.788;2024-03-17T03:38:10;9.77;;;4.90;;
27225;SDS011;14732;51.074;3.788;2024-03-17T03:40:36;9.10;;;4.97;;
27225;SDS011;14732;51.074;3.788;2024-03-17T03:43:02;8.73;;;5.15;;
27225;SDS011;14732;51.074;3.788;2024-03-17T03:45:27;6.40;;;4.45;;
27225;SDS011;14732;51.074;3.788;2024-03-17T03:47:53;7.22;;;5.07;;
27225;SDS011;14732;51.074;3.788;2024-03-17T03:50:22;7.82;;;4.80;;
27225;SDS011;14732;51.074;3.788;2024-03-17T03:52:48;8.70;;;4.90;;
27225;SDS011;14732;51.074;3.788;2024-03-17T03:55:15;6.68;;;4.47;;
27225;SDS011;14732;51.074;3.788;2024-03-17T03:57:42;7.88;;;4.95;;
27225;SDS011;14732;51.074;3.788;2024-03-17T04:00:08;8.25;;;4.80;;
27225;SDS011;14732;51.074;3.788;2024-03-17T04:02:43;10.45;;;4.78;;
27225;SDS011;14732;51.074;3.788;2024-03-17T04:05:09;9.32;;;4.93;;
27225;SDS011;14732;51.074;3.788;2024-03-17T04:07:36;6.45;;;4.40;;
27225;SDS011;14732;51.074;3.788;2024-03-17T04:10:02;7.03;;;5.07;;
27225;SDS011;14732;51.074;3.788;2024-03-17T04:12:28;5.53;;;4.20;;
27225;SDS011;14732;51.074;3.788;2024-03-17T04:14:57;7.53;;;4.75;;
27225;SDS011;14732;51.074;3.788;2024-03-17T04:17:24;10.18;;;5.13;;
27225;SDS011;14732;51.074;3.788;2024-03-17T04:19:50;8.13;;;4.93;;
27225;SDS011;14732;51.074;3.788;2024-03-17T04:22:16;7.32;;;4.55;;
27225;SDS011;14732;51.074;3.788;2024-03-17T04:24:43;9.18;;;5.35;;
27225;SDS011;14732;51.074;3.788;2024-03-17T04:27:09;9.00;;;5.50;;
27225;SDS011;14732;51.074;3.788;2024-03-17T04:29:35;10.02;;;5.40;;
27225;SDS011;14732;51.074;3.788;2024-03-17T04:32:01;7.05;;;4.97;;
27225;SDS011;14732;51.074;3.788;2024-03-17T04:34:27;8.07;;;5.30;;
27225;SDS011;14732;51.074;3.788;2024-03-17T04:36:53;6.47;;;4.28;;
27225;SDS011;14732;51.074;3.788;2024-03-17T04:39:19;9.02;;;5.05;;
27225;SDS011;14732;51.074;3.788;2024-03-17T04:41:45;10.57;;;5.40;;
27225;SDS011;14732;51.074;3.788;2024-03-17T04:44:13;8.05;;;5.03;;
27225;SDS011;14732;51.074;3.788;2024-03-17T04:46:38;11.02;;;5.10;;
27225;SDS011;14732;51.074;3.788;2024-03-17T04:49:04;6.82;;;4.65;;
27225;SDS011;14732;51.074;3.788;2024-03-17T04:51:30;8.32;;;5.40;;
27225;SDS011;14732;51.074;3.788;2024-03-17T04:53:58;8.55;;;5.18;;
27225;SDS011;14732;51.074;3.788;2024-03-17T04:56:24;11.35;;;5.13;;
27225;SDS011;14732;51.074;3.788;2024-03-17T04:58:50;11.55;;;5.03;;
27225;SDS011;14732;51.074;3.788;2024-03-17T05:01:15;9.02;;;5.30;;
27225;SDS011;14732;51.074;3.788;2024-03-17T05:03:41;7.90;;;4.82;;
27225;SDS011;14732;51.074;3.788;2024-03-17T05:06:07;6.97;;;5.28;;
27225;SDS011;14732;51.074;3.788;2024-03-17T05:08:33;9.65;;;5.85;;
27225;SDS011;14732;51.074;3.788;2024-03-17T05:11:02;8.85;;;5.30;;
27225;SDS011;14732;51.074;3.788;2024-03-17T05:13:33;10.90;;;7.28;;
27225;SDS011;14732;51.074;3.788;2024-03-17T05:16:00;10.57;;;6.88;;
27225;SDS011;14732;51.074;3.788;2024-03-17T05:18:26;11.70;;;6.80;;
27225;SDS011;14732;51.074;3.788;2024-03-17T05:20:56;12.07;;;6.45;;
27225;SDS011;14732;51.074;3.788;2024-03-17T05:23:26;11.77;;;6.18;;
27225;SDS011;14732;51.074;3.788;2024-03-17T05:25:57;9.48;;;6.00;;
27225;SDS011;14732;51.074;3.788;2024-03-17T05:28:23;10.35;;;7.00;;
27225;SDS011;14732;51.074;3.788;2024-03-17T05:30:50;9.75;;;5.70;;
27225;SDS011;14732;51.074;3.788;2024-03-17T05:33:19;11.30;;;5.55;;
27225;SDS011;14732;51.074;3.788;2024-03-17T05:35:59;8.63;;;5.70;;
27225;SDS011;14732;51.074;3.788;2024-03-17T05:38:27;10.73;;;5.85;;
27225;SDS011;14732;51.074;3.788;2024-03-17T05:40:57;10.50;;;5.82;;
27225;SDS011;14732;51.074;3.788;2024-03-17T05:43:27;8.80;;;5.43;;
27225;SDS011;14732;51.074;3.788;2024-03-17T05:45:56;10.30;;;5.72;;
27225;SDS011;14732;51.074;3.788;2024-03-17T05:48:23;8.68;;;5.35;;
27225;SDS011;14732;51.074;3.788;2024-03-17T05:50:51;9.82;;;5.25;;
27225;SDS011;14732;51.074;3.788;2024-03-17T05:53:17;10.23;;;6.07;;
27225;SDS011;14732;51.074;3.788;2024-03-17T05:55:43;11.43;;;5.85;;
27225;SDS011;14732;51.074;3.788;2024-03-17T05:58:10;14.32;;;5.82;;
27225;SDS011;14732;51.074;3.788;2024-03-17T06:00:36;13.10;;;5.63;;
27225;SDS011;14732;51.074;3.788;2024-03-17T06:03:03;15.35;;;7.60;;
27225;SDS011;14732;51.074;3.788;2024-03-17T06:05:33;14.45;;;6.72;;
27225;SDS011;14732;51.074;3.788;2024-03-17T06:08:00;15.25;;;6.78;;
27225;SDS011;14732;51.074;3.788;2024-03-17T06:10:37;14.18;;;7.00;;
27225;SDS011;14732;51.074;3.788;2024-03-17T06:13:03;14.48;;;7.45;;
27225;SDS011;14732;51.074;3.788;2024-03-17T06:15:29;15.15;;;6.97;;
27225;SDS011;14732;51.074;3.788;2024-03-17T06:17:55;14.80;;;8.77;;
27225;SDS011;14732;51.074;3.788;2024-03-17T06:20:22;17.67;;;7.55;;
27225;SDS011;14732;51.074;3.788;2024-03-17T06:22:49;14.38;;;6.28;;
27225;SDS011;14732;51.074;3.788;2024-03-17T06:25:15;14.10;;;6.32;;
27225;SDS011;14732;51.074;3.788;2024-03-17T06:27:41;15.05;;;6.30;;
27225;SDS011;14732;51.074;3.788;2024-03-17T06:30:16;16.58;;;5.88;;
27225;SDS011;14732;51.074;3.788;2024-03-17T06:32:43;15.02;;;6.18;;
27225;SDS011;14732;51.074;3.788;2024-03-17T06:35:12;17.30;;;7.43;;
27225;SDS011;14732;51.074;3.788;2024-03-17T06:37:43;16.55;;;7.13;;
27225;SDS011;14732;51.074;3.788;2024-03-17T06:40:12;16.40;;;6.97;;
27225;SDS011;14732;51.074;3.788;2024-03-17T06:42:39;17.48;;;6.63;;
27225;SDS011;14732;51.074;3.788;2024-03-17T06:45:05;19.17;;;6.80;;
27225;SDS011;14732;51.074;3.788;2024-03-17T06:47:33;17.58;;;6.72;;
27225;SDS011;14732;51.074;3.788;2024-03-17T06:50:01;20.70;;;6.95;;
27225;SDS011;14732;51.074;3.788;2024-03-17T06:52:28;14.77;;;6.60;;
27225;SDS011;14732;51.074;3.788;2024-03-17T06:54:53;18.67;;;6.82;;
27225;SDS011;14732;51.074;3.788;2024-03-17T06:57:19;18.98;;;6.70;;
27225;SDS011;14732;51.074;3.788;2024-03-17T06:59:45;22.05;;;6.97;;
27225;SDS011;14732;51.074;3.788;2024-03-17T07:02:11;25.77;;;7.07;;
27225;SDS011;14732;51.074;3.788;2024-03-17T07:07:06;16.02;;;6.50;;
27225;SDS011;14732;51.074;3.788;2024-03-17T07:09:31;19.05;;;6.85;;
27225;SDS011;14732;51.074;3.788;2024-03-17T07:11:57;18.02;;;7.20;;
27225;SDS011;14732;51.074;3.788;2024-03-17T07:14:23;17.08;;;6.63;;
27225;SDS011;14732;51.074;3.788;2024-03-17T07:16:51;15.38;;;6.47;;
27225;SDS011;14732;51.074;3.788;2024-03-17T07:19:16;19.30;;;6.35;;
27225;SDS011;14732;51.074;3.788;2024-03-17T07:21:42;16.48;;;6.60;;
27225;SDS011;14732;51.074;3.788;2024-03-17T07:24:08;11.40;;;5.60;;
27225;SDS011;14732;51.074;3.788;2024-03-17T07:26:33;17.98;;;6.00;;
27225;SDS011;14732;51.074;3.788;2024-03-17T07:28:59;15.15;;;6.07;;
27225;SDS011;14732;51.074;3.788;2024-03-17T07:31:25;12.98;;;5.95;;
27225;SDS011;14732;51.074;3.788;2024-03-17T07:33:51;11.30;;;5.63;;
27225;SDS011;14732;51.074;3.788;2024-03-17T07:36:16;13.48;;;5.22;;
27225;SDS011;14732;51.074;3.788;2024-03-17T07:38:42;12.50;;;4.82;;
27225;SDS011;14732;51.074;3.788;2024-03-17T07:41:08;12.20;;;4.85;;
27225;SDS011;14732;51.074;3.788;2024-03-17T07:43:34;10.25;;;4.72;;
27225;SDS011;14732;51.074;3.788;2024-03-17T07:48:33;12.05;;;5.05;;
27225;SDS011;14732;51.074;3.788;2024-03-17T07:51:01;11.30;;;4.47;;
27225;SDS011;14732;51.074;3.788;2024-03-17T07:53:29;9.65;;;4.90;;
27225;SDS011;14732;51.074;3.788;2024-03-17T07:56:13;7.72;;;4.13;;
27225;SDS011;14732;51.074;3.788;2024-03-17T07:58:41;7.65;;;4.43;;
27225;SDS011;14732;51.074;3.788;2024-03-17T08:01:09;8.80;;;3.95;;
27225;SDS011;14732;51.074;3.788;2024-03-17T08:03:37;8.60;;;4.50;;
27225;SDS011;14732;51.074;3.788;2024-03-17T08:06:05;7.35;;;4.50;;
27225;SDS011;14732;51.074;3.788;2024-03-17T08:08:32;8.77;;;4.45;;
27225;SDS011;14732;51.074;3.788;2024-03-17T08:10:58;7.68;;;3.80;;
27225;SDS011;14732;51.074;3.788;2024-03-17T08:13:24;9.73;;;4.07;;
27225;SDS011;14732;51.074;3.788;2024-03-17T08:15:57;9.68;;;4.10;;
27225;SDS011;14732;51.074;3.788;2024-03-17T08:18:24;7.40;;;4.32;;
27225;SDS011;14732;51.074;3.788;2024-03-17T08:20:50;7.93;;;4.30;;
27225;SDS011;14732;51.074;3.788;2024-03-17T08:23:16;8.63;;;4.53;;
27225;SDS011;14732;51.074;3.788;2024-03-17T08:25:41;7.57;;;4.22;;
27225;SDS011;14732;51.074;3.788;2024-03-17T08:28:07;7.88;;;4.30;;
27225;SDS011;14732;51.074;3.788;2024-03-17T08:30:33;8.30;;;3.92;;
27225;SDS011;14732;51.074;3.788;2024-03-17T08:32:59;8.85;;;4.00;;
27225;SDS011;14732;51.074;3.788;2024-03-17T08:35:26;6.88;;;4.32;;
27225;SDS011;14732;51.074;3.788;2024-03-17T08:37:51;10.73;;;4.20;;
27225;SDS011;14732;51.074;3.788;2024-03-17T08:40:19;7.72;;;4.30;;
27225;SDS011;14732;51.074;3.788;2024-03-17T08:42:45;11.38;;;4.72;;
27225;SDS011;14732;51.074;3.788;2024-03-17T08:45:11;10.18;;;5.18;;
27225;SDS011;14732;51.074;3.788;2024-03-17T08:47:37;13.70;;;4.88;;
27225;SDS011;14732;51.074;3.788;2024-03-17T08:50:03;10.80;;;4.82;;
27225;SDS011;14732;51.074;3.788;2024-03-17T08:52:32;7.65;;;4.28;;
27225;SDS011;14732;51.074;3.788;2024-03-17T08:55:01;9.00;;;5.20;;
27225;SDS011;14732;51.074;3.788;2024-03-17T08:57:29;9.73;;;5.07;;
27225;SDS011;14732;51.074;3.788;2024-03-17T08:59:54;11.38;;;4.72;;
27225;SDS011;14732;51.074;3.788;2024-03-17T09:02:20;10.45;;;4.88;;
27225;SDS011;14732;51.074;3.788;2024-03-17T09:04:46;11.43;;;5.00;;
27225;SDS011;14732;51.074;3.788;2024-03-17T09:07:12;7.55;;;4.50;;
27225;SDS011;14732;51.074;3.788;2024-03-17T09:09:40;10.38;;;4.85;;
27225;SDS011;14732;51.074;3.788;2024-03-17T09:12:07;10.65;;;4.90;;
27225;SDS011;14732;51.074;3.788;2024-03-17T09:14:33;7.88;;;4.47;;
27225;SDS011;14732;51.074;3.788;2024-03-17T09:16:58;8.13;;;4.53;;
27225;SDS011;14732;51.074;3.788;2024-03-17T09:19:24;8.55;;;5.00;;
27225;SDS011;14732;51.074;3.788;2024-03-17T09:21:50;10.20;;;5.00;;
27225;SDS011;14732;51.074;3.788;2024-03-17T09:24:15;9.65;;;5.30;;
27225;SDS011;14732;51.074;3.788;2024-03-17T09:26:41;12.40;;;5.80;;
27225;SDS011;14732;51.074;3.788;2024-03-17T09:29:07;15.05;;;5.93;;
27225;SDS011;14732;51.074;3.788;2024-03-17T09:31:32;9.32;;;5.25;;
27225;SDS011;14732;51.074;3.788;2024-03-17T09:34:00;10.45;;;5.45;;
27225;SDS011;14732;51.074;3.788;2024-03-17T09:36:26;10.38;;;5.20;;
27225;SDS011;14732;51.074;3.788;2024-03-17T09:38:52;9.50;;;5.68;;
27225;SDS011;14732;51.074;3.788;2024-03-17T09:41:21;8.00;;;5.60;;
27225;SDS011;14732;51.074;3.788;2024-03-17T09:43:54;10.50;;;5.75;;
27225;SDS011;14732;51.074;3.788;2024-03-17T09:46:24;10.30;;;5.15;;
27225;SDS011;14732;51.074;3.788;2024-03-17T09:48:54;11.60;;;5.78;;
27225;SDS011;14732;51.074;3.788;2024-03-17T09:51:20;11.23;;;5.45;;
27225;SDS011;14732;51.074;3.788;2024-03-17T09:53:47;17.23;;;6.32;;
27225;SDS011;14732;51.074;3.788;2024-03-17T09:56:14;15.55;;;5.40;;
27225;SDS011;14732;51.074;3.788;2024-03-17T09:58:41;11.75;;;5.40;;
27225;SDS011;14732;51.074;3.788;2024-03-17T10:01:07;12.18;;;5.50;;
27225;SDS011;14732;51.074;3.788;2024-03-17T10:03:43;13.38;;;5.32;;
27225;SDS011;14732;51.074;3.788;2024-03-17T10:06:24;13.13;;;5.47;;
27225;SDS011;14732;51.074;3.788;2024-03-17T10:08:53;18.20;;;6.13;;
27225;SDS011;14732;51.074;3.788;2024-03-17T10:11:20;12.38;;;6.00;;
27225;SDS011;14732;51.074;3.788;2024-03-17T10:13:58;11.88;;;6.35;;
27225;SDS011;14732;51.074;3.788;2024-03-17T10:16:33;14.63;;;6.15;;
27225;SDS011;14732;51.074;3.788;2024-03-17T10:19:08;10.30;;;5.63;;
27225;SDS011;14732;51.074;3.788;2024-03-17T10:21:39;13.30;;;5.95;;
27225;SDS011;14732;51.074;3.788;2024-03-17T10:24:10;13.27;;;5.78;;
27225;SDS011;14732;51.074;3.788;2024-03-17T10:26:44;11.25;;;5.38;;
27225;SDS011;14732;51.074;3.788;2024-03-17T10:31:57;9.93;;;5.22;;
27225;SDS011;14732;51.074;3.788;2024-03-17T10:34:24;12.80;;;5.88;;
27225;SDS011;14732;51.074;3.788;2024-03-17T10:39:38;13.32;;;5.35;;
27225;SDS011;14732;51.074;3.788;2024-03-17T10:42:08;10.75;;;5.22;;
27225;SDS011;14732;51.074;3.788;2024-03-17T10:44:36;9.60;;;5.32;;
27225;SDS011;14732;51.074;3.788;2024-03-17T10:47:06;7.28;;;4.75;;
27225;SDS011;14732;51.074;3.788;2024-03-17T10:49:36;7.85;;;4.47;;
27225;SDS011;14732;51.074;3.788;2024-03-17T10:52:07;9.45;;;4.72;;
27225;SDS011;14732;51.074;3.788;2024-03-17T10:54:40;9.05;;;4.40;;
27225;SDS011;14732;51.074;3.788;2024-03-17T10:59:49;9.63;;;4.20;;
27225;SDS011;14732;51.074;3.788;2024-03-17T11:02:33;7.85;;;3.80;;
27225;SDS011;14732;51.074;3.788;2024-03-17T11:05:04;7.28;;;3.70;;
27225;SDS011;14732;51.074;3.788;2024-03-17T11:07:32;7.75;;;3.90;;
27225;SDS011;14732;51.074;3.788;2024-03-17T11:12:45;6.85;;;3.97;;
27225;SDS011;14732;51.074;3.788;2024-03-17T11:17:48;9.63;;;3.72;;
27225;SDS011;14732;51.074;3.788;2024-03-17T11:22:43;10.93;;;3.65;;
27225;SDS011;14732;51.074;3.788;2024-03-17T11:25:44;12.15;;;3.60;;
27225;SDS011;14732;51.074;3.788;2024-03-17T11:28:03;7.78;;;3.58;;
27225;SDS011;14732;51.074;3.788;2024-03-17T11:38:57;4.90;;;3.10;;
27225;SDS011;14732;51.074;3.788;2024-03-17T11:46:46;5.50;;;2.97;;
27225;SDS011;14732;51.074;3.788;2024-03-17T11:49:22;5.78;;;2.75;;
27225;SDS011;14732;51.074;3.788;2024-03-17T11:51:54;7.38;;;3.00;;
27225;SDS011;14732;51.074;3.788;2024-03-17T11:54:22;6.88;;;2.95;;
27225;SDS011;14732;51.074;3.788;2024-03-17T11:56:52;6.25;;;2.70;;
27225;SDS011;14732;51.074;3.788;2024-03-17T11:59:18;7.53;;;2.50;;
27225;SDS011;14732;51.074;3.788;2024-03-17T12:01:45;7.25;;;2.50;;
27225;SDS011;14732;51.074;3.788;2024-03-17T12:04:28;6.32;;;2.70;;
27225;SDS011;14732;51.074;3.788;2024-03-17T12:06:58;7.85;;;2.45;;
27225;SDS011;14732;51.074;3.788;2024-03-17T12:09:24;6.28;;;2.63;;
27225;SDS011;14732;51.074;3.788;2024-03-17T12:14:22;8.48;;;2.72;;
27225;SDS011;14732;51.074;3.788;2024-03-17T12:16:54;7.32;;;2.13;;
27225;SDS011;14732;51.074;3.788;2024-03-17T12:19:25;6.47;;;2.13;;
27225;SDS011;14732;51.074;3.788;2024-03-17T12:21:52;4.32;;;1.77;;
27225;SDS011;14732;51.074;3.788;2024-03-17T12:24:22;4.93;;;1.85;;
27225;SDS011;14732;51.074;3.788;2024-03-17T12:26:50;4.30;;;1.63;;
27225;SDS011;14732;51.074;3.788;2024-03-17T12:32:20;4.78;;;1.67;;
27225;SDS011;14732;51.074;3.788;2024-03-17T12:34:49;3.90;;;1.38;;
27225;SDS011;14732;51.074;3.788;2024-03-17T12:37:17;6.05;;;1.48;;
27225;SDS011;14732;51.074;3.788;2024-03-17T12:39:43;5.47;;;1.58;;
27225;SDS011;14732;51.074;3.788;2024-03-17T12:42:10;5.53;;;1.90;;
27225;SDS011;14732;51.074;3.788;2024-03-17T12:44:49;5.15;;;2.00;;
27225;SDS011;14732;51.074;3.788;2024-03-17T12:49:46;3.75;;;1.60;;
27225;SDS011;14732;51.074;3.788;2024-03-17T12:52:19;5.70;;;1.60;;
27225;SDS011;14732;51.074;3.788;2024-03-17T13:00:49;4.90;;;1.60;;
27225;SDS011;14732;51.074;3.788;2024-03-17T13:03:25;8.02;;;1.80;;
27225;SDS011;14732;51.074;3.788;2024-03-17T13:05:52;3.97;;;1.40;;
27225;SDS011;14732;51.074;3.788;2024-03-17T13:08:17;6.00;;;1.20;;
27225;SDS011;14732;51.074;3.788;2024-03-17T13:10:43;6.93;;;1.40;;
27225;SDS011;14732;51.074;3.788;2024-03-17T13:13:09;4.43;;;1.30;;
27225;SDS011;14732;51.074;3.788;2024-03-17T13:15:37;5.50;;;1.30;;
27225;SDS011;14732;51.074;3.788;2024-03-17T13:18:03;6.95;;;1.25;;
27225;SDS011;14732;51.074;3.788;2024-03-17T13:20:30;8.27;;;1.60;;
27225;SDS011;14732;51.074;3.788;2024-03-17T13:22:57;5.18;;;1.42;;
27225;SDS011;14732;51.074;3.788;2024-03-17T13:25:25;8.35;;;1.50;;
27225;SDS011;14732;51.074;3.788;2024-03-17T13:27:54;3.75;;;1.38;;
27225;SDS011;14732;51.074;3.788;2024-03-17T13:30:21;4.45;;;1.30;;
27225;SDS011;14732;51.074;3.788;2024-03-17T13:32:48;4.25;;;1.30;;
27225;SDS011;14732;51.074;3.788;2024-03-17T13:35:20;3.13;;;1.40;;
27225;SDS011;14732;51.074;3.788;2024-03-17T13:37:48;3.63;;;1.20;;
27225;SDS011;14732;51.074;3.788;2024-03-17T13:40:16;4.70;;;1.20;;
27225;SDS011;14732;51.074;3.788;2024-03-17T13:42:47;5.63;;;1.60;;
27225;SDS011;14732;51.074;3.788;2024-03-17T13:45:16;5.75;;;1.40;;
27225;SDS011;14732;51.074;3.788;2024-03-17T13:47:47;6.68;;;1.33;;
27225;SDS011;14732;51.074;3.788;2024-03-17T13:50:16;8.75;;;1.67;;
27225;SDS011;14732;51.074;3.788;2024-03-17T13:52:43;4.65;;;1.30;;
27225;SDS011;14732;51.074;3.788;2024-03-17T13:55:14;5.00;;;1.30;;
27225;SDS011;14732;51.074;3.788;2024-03-17T13:57:44;3.63;;;1.40;;
27225;SDS011;14732;51.074;3.788;2024-03-17T14:00:20;4.45;;;1.30;;
27225;SDS011;14732;51.074;3.788;2024-03-17T14:02:51;5.07;;;1.20;;
27225;SDS011;14732;51.074;3.788;2024-03-17T14:05:18;5.88;;;1.20;;
27225;SDS011;14732;51.074;3.788;2024-03-17T14:07:48;5.22;;;1.23;;
27225;SDS011;14732;51.074;3.788;2024-03-17T14:10:15;8.30;;;1.60;;
27225;SDS011;14732;51.074;3.788;2024-03-17T14:12:42;6.43;;;1.65;;
27225;SDS011;14732;51.074;3.788;2024-03-17T14:15:09;4.88;;;1.30;;
27225;SDS011;14732;51.074;3.788;2024-03-17T14:17:40;3.35;;;1.48;;
27225;SDS011;14732;51.074;3.788;2024-03-17T14:20:06;4.80;;;1.40;;
27225;SDS011;14732;51.074;3.788;2024-03-17T14:22:39;3.65;;;1.30;;
27225;SDS011;14732;51.074;3.788;2024-03-17T14:25:07;7.15;;;1.48;;
27225;SDS011;14732;51.074;3.788;2024-03-17T14:27:34;5.07;;;1.58;;
27225;SDS011;14732;51.074;3.788;2024-03-17T14:30:01;7.53;;;1.58;;
27225;SDS011;14732;51.074;3.788;2024-03-17T14:32:29;5.05;;;1.30;;
27225;SDS011;14732;51.074;3.788;2024-03-17T14:34:55;3.80;;;1.25;;
27225;SDS011;14732;51.074;3.788;2024-03-17T14:37:21;7.93;;;1.50;;
27225;SDS011;14732;51.074;3.788;2024-03-17T14:39:47;5.57;;;1.40;;
27225;SDS011;14732;51.074;3.788;2024-03-17T14:42:14;5.47;;;1.30;;
27225;SDS011;14732;51.074;3.788;2024-03-17T14:44:40;5.53;;;1.20;;
27225;SDS011;14732;51.074;3.788;2024-03-17T14:47:06;3.65;;;1.05;;
27225;SDS011;14732;51.074;3.788;2024-03-17T14:49:32;5.68;;;1.05;;
27225;SDS011;14732;51.074;3.788;2024-03-17T14:51:58;2.55;;;0.93;;
27225;SDS011;14732;51.074;3.788;2024-03-17T14:54:24;3.75;;;1.15;;
27225;SDS011;14732;51.074;3.788;2024-03-17T14:56:50;4.88;;;0.90;;
27225;SDS011;14732;51.074;3.788;2024-03-17T14:59:16;3.75;;;1.17;;
27225;SDS011;14732;51.074;3.788;2024-03-17T15:01:43;6.13;;;1.20;;
27225;SDS011;14732;51.074;3.788;2024-03-17T15:04:10;3.63;;;1.20;;
27225;SDS011;14732;51.074;3.788;2024-03-17T15:06:36;4.57;;;1.40;;
27225;SDS011;14732;51.074;3.788;2024-03-17T15:09:02;7.55;;;1.27;;
27225;SDS011;14732;51.074;3.788;2024-03-17T15:11:28;4.85;;;1.42;;
27225;SDS011;14732;51.074;3.788;2024-03-17T15:13:54;3.50;;;1.20;;
27225;SDS011;14732;51.074;3.788;2024-03-17T15:16:19;3.13;;;1.20;;
27225;SDS011;14732;51.074;3.788;2024-03-17T15:18:46;4.95;;;1.13;;
27225;SDS011;14732;51.074;3.788;2024-03-17T15:21:11;3.08;;;1.23;;
27225;SDS011;14732;51.074;3.788;2024-03-17T15:23:37;5.85;;;1.65;;
27225;SDS011;14732;51.074;3.788;2024-03-17T15:26:05;6.40;;;1.48;;
27225;SDS011;14732;51.074;3.788;2024-03-17T15:28:33;4.50;;;1.45;;
27225;SDS011;14732;51.074;3.788;2024-03-17T15:31:09;5.45;;;1.50;;
27225;SDS011;14732;51.074;3.788;2024-03-17T15:33:35;5.18;;;1.40;;
27225;SDS011;14732;51.074;3.788;2024-03-17T15:36:02;5.25;;;1.17;;